sensor_id;sensor_type;location;lat;lon;timestamp;pressure;altitude;pressure_sealevel;temperature;humidity
77041;BME280;65974;42.664;23.264;2023-08-21T00:02:24;94745.97;;;21.94;56.84
77041;BME280;65974;42.664;23.264;2023-08-21T00:04:53;94748.72;;;21.81;57.15
77041;BME280;65974;42.664;23.264;2023-08-21T00:07:19;94743.22;;;21.85;57.32
77041;BME280;65974;42.664;23.264;2023-08-21T00:09:44;94741.25;;;21.85;58.00
77041;BME280;65974;42.664;23.264;2023-08-21T00:12:09;94736.47;;;21.89;57.12
77041;BME280;65974;42.664;23.264;2023-08-21T00:14:35;94737.53;;;21.92;56.84
77041;BME280;65974;42.664;23.264;2023-08-21T00:17:01;94735.84;;;21.85;57.64
77041;BME280;65974;42.664;23.264;2023-08-21T00:19:28;94741.44;;;21.69;57.46
77041;BME280;65974;42.664;23.264;2023-08-21T00:21:53;94739.16;;;21.68;57.60
77041;BME280;65974;42.664;23.264;2023-08-21T00:24:19;94735.16;;;21.59;58.20
77041;BME280;65974;42.664;23.264;2023-08-21T00:26:45;94735.84;;;21.51;58.56
77041;BME280;65974;42.664;23.264;2023-08-21T00:29:10;94736.53;;;21.42;58.85
77041;BME280;65974;42.664;23.264;2023-08-21T00:31:35;94736.66;;;21.39;59.07
77041;BME280;65974;42.664;23.264;2023-08-21T00:34:01;94737.56;;;21.36;58.81
77041;BME280;65974;42.664;23.264;2023-08-21T00:36:26;94738.88;;;21.31;58.52
77041;BME280;65974;42.664;23.264;2023-08-21T00:38:52;94738.97;;;21.28;58.92
77041;BME280;65974;42.664;23.264;2023-08-21T00:41:17;94746.28;;;21.18;59.06
77041;BME280;65974;42.664;23.264;2023-08-21T00:43:43;94747.56;;;21.14;59.38
77041;BME280;65974;42.664;23.264;2023-08-21T00:46:10;94742.69;;;21.09;59.43
77041;BME280;65974;42.664;23.264;2023-08-21T00:48:36;94750.28;;;21.14;59.93
77041;BME280;65974;42.664;23.264;2023-08-21T00:51:03;94743.03;;;21.11;60.18
77041;BME280;65974;42.664;23.264;2023-08-21T00:53:29;94753.09;;;21.23;59.79
77041;BME280;65974;42.664;23.264;2023-08-21T00:55:54;94750.56;;;21.28;59.76
77041;BME280;65974;42.664;23.264;2023-08-21T00:58:20;94747.81;;;21.41;58.97
77041;BME280;65974;42.664;23.264;2023-08-21T01:00:46;94747.38;;;21.42;58.84
77041;BME280;65974;42.664;23.264;2023-08-21T01:03:14;94746.31;;;21.40;59.57
77041;BME280;65974;42.664;23.264;2023-08-21T01:05:40;94749.53;;;21.47;58.37
77041;BME280;65974;42.664;23.264;2023-08-21T01:10:54;94754.56;;;21.36;59.35
77041;BME280;65974;42.664;23.264;2023-08-21T01:13:31;94755.13;;;21.31;59.26
77041;BME280;65974;42.664;23.264;2023-08-21T01:16:00;94744.66;;;21.21;59.11
77041;BME280;65974;42.664;23.264;2023-08-21T01:18:26;94745.94;;;21.16;59.54
77041;BME280;65974;42.664;23.264;2023-08-21T01:20:54;94745.41;;;21.09;60.02
77041;BME280;65974;42.664;23.264;2023-08-21T01:23:35;94748.34;;;21.02;60.60
77041;BME280;65974;42.664;23.264;2023-08-21T01:26:01;94752.91;;;21.05;60.35
77041;BME280;65974;42.664;23.264;2023-08-21T01:28:26;94756.81;;;21.04;59.91
77041;BME280;65974;42.664;23.264;2023-08-21T01:31:19;94751.47;;;21.00;60.00
77041;BME280;65974;42.664;23.264;2023-08-21T01:33:45;94749.75;;;20.94;60.15
77041;BME280;65974;42.664;23.264;2023-08-21T01:36:13;94754.84;;;20.92;60.45
77041;BME280;65974;42.664;23.264;2023-08-21T01:38:39;94762.63;;;20.89;59.97
77041;BME280;65974;42.664;23.264;2023-08-21T01:41:05;94756.91;;;20.87;60.57
77041;BME280;65974;42.664;23.264;2023-08-21T01:43:31;94757.34;;;20.86;60.60
77041;BME280;65974;42.664;23.264;2023-08-21T01:45:56;94761.22;;;20.85;61.21
77041;BME280;65974;42.664;23.264;2023-08-21T01:48:22;94756.72;;;20.82;61.36
77041;BME280;65974;42.664;23.264;2023-08-21T01:50:48;94754.50;;;20.89;61.45
77041;BME280;65974;42.664;23.264;2023-08-21T01:53:13;94752.06;;;20.82;61.63
77041;BME280;65974;42.664;23.264;2023-08-21T01:55:38;94751.81;;;20.89;61.26
77041;BME280;65974;42.664;23.264;2023-08-21T01:58:04;94756.69;;;20.95;60.89
77041;BME280;65974;42.664;23.264;2023-08-21T02:00:29;94745.41;;;20.96;60.88
77041;BME280;65974;42.664;23.264;2023-08-21T02:02:55;94742.94;;;21.02;60.99
77041;BME280;65974;42.664;23.264;2023-08-21T02:05:21;94749.19;;;20.99;61.15
77041;BME280;65974;42.664;23.264;2023-08-21T02:07:47;94752.13;;;20.92;60.93
77041;BME280;65974;42.664;23.264;2023-08-21T02:10:12;94748.78;;;20.87;61.48
77041;BME280;65974;42.664;23.264;2023-08-21T02:12:40;94754.00;;;20.82;60.87
77041;BME280;65974;42.664;23.264;2023-08-21T02:15:06;94748.13;;;20.83;60.80
77041;BME280;65974;42.664;23.264;2023-08-21T02:17:32;94752.69;;;20.86;61.48
77041;BME280;65974;42.664;23.264;2023-08-21T02:19:57;94745.44;;;20.83;60.69
77041;BME280;65974;42.664;23.264;2023-08-21T02:22:23;94747.50;;;20.79;60.56
77041;BME280;65974;42.664;23.264;2023-08-21T02:24:49;94745.22;;;20.78;60.48
77041;BME280;65974;42.664;23.264;2023-08-21T02:27:14;94742.63;;;20.74;60.90
77041;BME280;65974;42.664;23.264;2023-08-21T02:29:41;94745.78;;;20.73;60.51
77041;BME280;65974;42.664;23.264;2023-08-21T02:32:07;94740.03;;;20.71;60.75
77041;BME280;65974;42.664;23.264;2023-08-21T02:34:33;94742.41;;;20.69;60.66
77041;BME280;65974;42.664;23.264;2023-08-21T02:36:59;94739.28;;;20.70;60.71
77041;BME280;65974;42.664;23.264;2023-08-21T02:39:24;94740.78;;;20.71;61.47
77041;BME280;65974;42.664;23.264;2023-08-21T02:41:50;94742.09;;;20.67;61.14
77041;BME280;65974;42.664;23.264;2023-08-21T02:44:15;94744.81;;;20.67;61.21
77041;BME280;65974;42.664;23.264;2023-08-21T02:46:40;94743.50;;;20.71;61.74
77041;BME280;65974;42.664;23.264;2023-08-21T02:49:07;94742.53;;;20.65;62.10
77041;BME280;65974;42.664;23.264;2023-08-21T02:51:33;94738.84;;;20.59;62.30
77041;BME280;65974;42.664;23.264;2023-08-21T02:53:58;94737.34;;;20.58;61.92
77041;BME280;65974;42.664;23.264;2023-08-21T02:56:23;94739.72;;;20.56;61.48
77041;BME280;65974;42.664;23.264;2023-08-21T02:58:49;94741.97;;;20.58;61.95
77041;BME280;65974;42.664;23.264;2023-08-21T03:04:00;94746.09;;;20.62;61.88
77041;BME280;65974;42.664;23.264;2023-08-21T03:06:27;94745.34;;;20.62;61.70
77041;BME280;65974;42.664;23.264;2023-08-21T03:08:53;94747.84;;;20.56;61.61
77041;BME280;65974;42.664;23.264;2023-08-21T03:11:18;94754.00;;;20.57;61.48
77041;BME280;65974;42.664;23.264;2023-08-21T03:13:43;94755.00;;;20.50;61.66
77041;BME280;65974;42.664;23.264;2023-08-21T03:16:09;94760.72;;;20.52;62.02
77041;BME280;65974;42.664;23.264;2023-08-21T03:18:56;94756.94;;;20.50;61.88
77041;BME280;65974;42.664;23.264;2023-08-21T03:21:23;94763.31;;;20.43;61.87
77041;BME280;65974;42.664;23.264;2023-08-21T03:23:57;94761.78;;;20.42;62.55
77041;BME280;65974;42.664;23.264;2023-08-21T03:26:23;94768.72;;;20.43;62.43
77041;BME280;65974;42.664;23.264;2023-08-21T03:28:49;94772.72;;;20.39;62.63
77041;BME280;65974;42.664;23.264;2023-08-21T03:31:15;94770.53;;;20.34;62.93
77041;BME280;65974;42.664;23.264;2023-08-21T03:33:40;94764.59;;;20.39;63.64
77041;BME280;65974;42.664;23.264;2023-08-21T03:36:07;94765.69;;;20.41;63.44
77041;BME280;65974;42.664;23.264;2023-08-21T03:38:33;94770.78;;;20.39;63.44
77041;BME280;65974;42.664;23.264;2023-08-21T03:41:00;94774.00;;;20.34;63.42
77041;BME280;65974;42.664;23.264;2023-08-21T03:43:26;94766.78;;;20.31;63.52
77041;BME280;65974;42.664;23.264;2023-08-21T03:45:51;94764.38;;;20.33;63.19
77041;BME280;65974;42.664;23.264;2023-08-21T03:48:17;94770.66;;;20.30;62.97
77041;BME280;65974;42.664;23.264;2023-08-21T03:50:42;94771.53;;;20.27;63.20
77041;BME280;65974;42.664;23.264;2023-08-21T03:53:08;94769.50;;;20.15;63.51
77041;BME280;65974;42.664;23.264;2023-08-21T03:55:33;94765.06;;;20.08;63.74
77041;BME280;65974;42.664;23.264;2023-08-21T03:57:58;94770.38;;;20.12;64.58
77041;BME280;65974;42.664;23.264;2023-08-21T04:00:24;94769.94;;;20.13;64.53
77041;BME280;65974;42.664;23.264;2023-08-21T04:02:49;94772.88;;;20.19;64.82
77041;BME280;65974;42.664;23.264;2023-08-21T04:05:15;94770.84;;;20.23;64.58
77041;BME280;65974;42.664;23.264;2023-08-21T04:07:41;94773.47;;;20.27;64.32
77041;BME280;65974;42.664;23.264;2023-08-21T04:10:06;94773.91;;;20.25;64.25
77041;BME280;65974;42.664;23.264;2023-08-21T04:12:33;94773.22;;;20.21;64.08
77041;BME280;65974;42.664;23.264;2023-08-21T04:15:00;94776.44;;;20.16;64.24
77041;BME280;65974;42.664;23.264;2023-08-21T04:17:25;94784.75;;;20.09;64.00
77041;BME280;65974;42.664;23.264;2023-08-21T04:19:51;94782.16;;;20.05;64.49
77041;BME280;65974;42.664;23.264;2023-08-21T04:22:17;94779.13;;;20.03;64.25
77041;BME280;65974;42.664;23.264;2023-08-21T04:24:42;94786.91;;;20.01;64.13
77041;BME280;65974;42.664;23.264;2023-08-21T04:27:08;94782.25;;;20.02;64.43
77041;BME280;65974;42.664;23.264;2023-08-21T04:29:35;94785.53;;;20.09;64.50
77041;BME280;65974;42.664;23.264;2023-08-21T04:32:01;94780.13;;;20.09;64.31
77041;BME280;65974;42.664;23.264;2023-08-21T04:34:26;94786.63;;;20.12;64.23
77041;BME280;65974;42.664;23.264;2023-08-21T04:36:51;94786.06;;;20.17;63.88
77041;BME280;65974;42.664;23.264;2023-08-21T04:39:19;94786.41;;;20.19;63.90
77041;BME280;65974;42.664;23.264;2023-08-21T04:41:44;94792.84;;;20.25;63.82
77041;BME280;65974;42.664;23.264;2023-08-21T04:44:11;94792.28;;;20.30;63.73
77041;BME280;65974;42.664;23.264;2023-08-21T04:46:37;94791.78;;;20.35;63.69
77041;BME280;65974;42.664;23.264;2023-08-21T04:49:03;94788.84;;;20.42;63.55
77041;BME280;65974;42.664;23.264;2023-08-21T04:51:28;94787.22;;;20.45;63.58
77041;BME280;65974;42.664;23.264;2023-08-21T04:53:53;94794.94;;;20.46;63.42
77041;BME280;65974;42.664;23.264;2023-08-21T04:56:19;94797.09;;;20.51;63.64
77041;BME280;65974;42.664;23.264;2023-08-21T04:58:44;94792.63;;;20.57;63.71
77041;BME280;65974;42.664;23.264;2023-08-21T05:01:10;94800.56;;;20.64;63.31
77041;BME280;65974;42.664;23.264;2023-08-21T05:03:36;94800.03;;;20.69;63.00
77041;BME280;65974;42.664;23.264;2023-08-21T05:06:01;94808.69;;;20.77;62.92
77041;BME280;65974;42.664;23.264;2023-08-21T05:08:26;94803.06;;;20.84;62.44
77041;BME280;65974;42.664;23.264;2023-08-21T05:10:58;94803.91;;;20.94;61.90
77041;BME280;65974;42.664;23.264;2023-08-21T05:13:24;94810.97;;;21.04;61.63
77041;BME280;65974;42.664;23.264;2023-08-21T05:15:53;94809.56;;;21.12;61.88
77041;BME280;65974;42.664;23.264;2023-08-21T05:18:22;94817.16;;;21.17;61.60
77041;BME280;65974;42.664;23.264;2023-08-21T05:20:48;94820.19;;;21.19;61.50
77041;BME280;65974;42.664;23.264;2023-08-21T05:23:14;94816.25;;;21.20;61.38
77041;BME280;65974;42.664;23.264;2023-08-21T05:25:40;94818.75;;;21.27;61.19
77041;BME280;65974;42.664;23.264;2023-08-21T05:28:06;94826.63;;;21.34;61.77
77041;BME280;65974;42.664;23.264;2023-08-21T05:30:31;94817.31;;;21.35;61.21
77041;BME280;65974;42.664;23.264;2023-08-21T05:32:57;94818.41;;;21.37;60.91
77041;BME280;65974;42.664;23.264;2023-08-21T05:35:22;94814.06;;;21.40;61.05
77041;BME280;65974;42.664;23.264;2023-08-21T05:37:48;94813.50;;;21.45;60.80
77041;BME280;65974;42.664;23.264;2023-08-21T05:40:13;94817.16;;;21.51;61.67
77041;BME280;65974;42.664;23.264;2023-08-21T05:42:39;94812.72;;;21.57;61.16
77041;BME280;65974;42.664;23.264;2023-08-21T05:45:07;94813.56;;;21.67;59.79
77041;BME280;65974;42.664;23.264;2023-08-21T05:47:33;94809.59;;;21.80;58.75
77041;BME280;65974;42.664;23.264;2023-08-21T05:49:58;94805.16;;;21.86;58.58
77041;BME280;65974;42.664;23.264;2023-08-21T05:52:24;94804.34;;;21.98;59.61
77041;BME280;65974;42.664;23.264;2023-08-21T05:54:49;94810.22;;;21.97;59.62
77041;BME280;65974;42.664;23.264;2023-08-21T05:57:15;94810.47;;;22.11;58.13
77041;BME280;65974;42.664;23.264;2023-08-21T05:59:45;94801.16;;;22.21;57.77
77041;BME280;65974;42.664;23.264;2023-08-21T06:02:12;94801.78;;;22.25;56.94
77041;BME280;65974;42.664;23.264;2023-08-21T06:04:39;94802.75;;;22.31;56.69
77041;BME280;65974;42.664;23.264;2023-08-21T06:07:04;94811.38;;;22.39;57.13
77041;BME280;65974;42.664;23.264;2023-08-21T06:09:30;94804.19;;;22.45;57.10
77041;BME280;65974;42.664;23.264;2023-08-21T06:11:57;94808.28;;;22.50;57.02
77041;BME280;65974;42.664;23.264;2023-08-21T06:14:22;94807.25;;;22.56;57.87
77041;BME280;65974;42.664;23.264;2023-08-21T06:16:55;94805.97;;;22.61;57.36
77041;BME280;65974;42.664;23.264;2023-08-21T06:19:21;94811.13;;;22.68;56.33
77041;BME280;65974;42.664;23.264;2023-08-21T06:21:46;94810.28;;;22.80;55.51
77041;BME280;65974;42.664;23.264;2023-08-21T06:24:12;94809.84;;;22.90;56.17
77041;BME280;65974;42.664;23.264;2023-08-21T06:26:37;94822.88;;;23.04;54.91
77041;BME280;65974;42.664;23.264;2023-08-21T06:29:02;94815.53;;;23.14;54.89
77041;BME280;65974;42.664;23.264;2023-08-21T06:31:28;94814.94;;;23.19;55.36
77041;BME280;65974;42.664;23.264;2023-08-21T06:33:53;94819.63;;;23.28;54.60
77041;BME280;65974;42.664;23.264;2023-08-21T06:36:19;94818.91;;;23.36;53.33
77041;BME280;65974;42.664;23.264;2023-08-21T06:38:44;94827.09;;;23.45;53.75
77041;BME280;65974;42.664;23.264;2023-08-21T06:41:10;94817.75;;;23.55;54.05
77041;BME280;65974;42.664;23.264;2023-08-21T06:43:35;94819.41;;;23.62;54.19
77041;BME280;65974;42.664;23.264;2023-08-21T06:46:01;94818.97;;;23.72;52.86
77041;BME280;65974;42.664;23.264;2023-08-21T06:48:26;94825.31;;;23.87;52.54
77041;BME280;65974;42.664;23.264;2023-08-21T06:50:52;94827.00;;;23.94;52.58
77041;BME280;65974;42.664;23.264;2023-08-21T06:53:17;94820.66;;;23.97;52.24
77041;BME280;65974;42.664;23.264;2023-08-21T06:55:45;94826.56;;;24.05;52.39
77041;BME280;65974;42.664;23.264;2023-08-21T06:58:11;94823.53;;;24.12;51.93
77041;BME280;65974;42.664;23.264;2023-08-21T07:00:36;94825.03;;;24.22;51.03
77041;BME280;65974;42.664;23.264;2023-08-21T07:03:02;94821.41;;;24.34;50.11
77041;BME280;65974;42.664;23.264;2023-08-21T07:05:28;94823.19;;;24.46;50.30
77041;BME280;65974;42.664;23.264;2023-08-21T07:07:54;94820.91;;;24.53;49.64
77041;BME280;65974;42.664;23.264;2023-08-21T07:10:20;94819.38;;;24.61;49.28
77041;BME280;65974;42.664;23.264;2023-08-21T07:12:46;94820.09;;;24.71;49.56
77041;BME280;65974;42.664;23.264;2023-08-21T07:15:12;94822.53;;;24.78;48.57
77041;BME280;65974;42.664;23.264;2023-08-21T07:17:37;94814.78;;;24.86;48.59
77041;BME280;65974;42.664;23.264;2023-08-21T07:20:03;94813.09;;;24.88;48.62
77041;BME280;65974;42.664;23.264;2023-08-21T07:22:29;94819.00;;;24.96;48.03
77041;BME280;65974;42.664;23.264;2023-08-21T07:24:55;94819.13;;;25.01;48.89
77041;BME280;65974;42.664;23.264;2023-08-21T07:27:20;94815.41;;;25.13;47.31
77041;BME280;65974;42.664;23.264;2023-08-21T07:29:46;94818.00;;;25.17;46.76
77041;BME280;65974;42.664;23.264;2023-08-21T07:32:12;94821.59;;;25.23;45.97
77041;BME280;65974;42.664;23.264;2023-08-21T07:34:38;94820.66;;;25.26;46.22
77041;BME280;65974;42.664;23.264;2023-08-21T07:37:03;94818.97;;;25.28;46.72
77041;BME280;65974;42.664;23.264;2023-08-21T07:39:30;94816.97;;;25.38;48.79
77041;BME280;65974;42.664;23.264;2023-08-21T07:41:56;94812.06;;;25.51;47.32
77041;BME280;65974;42.664;23.264;2023-08-21T07:44:21;94808.97;;;25.58;46.48
77041;BME280;65974;42.664;23.264;2023-08-21T07:46:47;94816.63;;;25.69;46.77
77041;BME280;65974;42.664;23.264;2023-08-21T07:49:12;94813.56;;;25.76;46.08
77041;BME280;65974;42.664;23.264;2023-08-21T07:51:38;94815.66;;;25.81;45.80
77041;BME280;65974;42.664;23.264;2023-08-21T07:54:03;94806.81;;;25.86;45.82
77041;BME280;65974;42.664;23.264;2023-08-21T07:56:29;94810.03;;;25.99;46.12
77041;BME280;65974;42.664;23.264;2023-08-21T07:58:54;94809.84;;;26.02;46.20
77041;BME280;65974;42.664;23.264;2023-08-21T08:01:20;94806.84;;;26.00;46.20
77041;BME280;65974;42.664;23.264;2023-08-21T08:03:46;94806.47;;;26.07;45.09
77041;BME280;65974;42.664;23.264;2023-08-21T08:06:11;94807.66;;;26.15;45.07
77041;BME280;65974;42.664;23.264;2023-08-21T08:08:37;94810.69;;;26.32;44.85
77041;BME280;65974;42.664;23.264;2023-08-21T08:11:03;94800.97;;;26.46;43.97
77041;BME280;65974;42.664;23.264;2023-08-21T08:13:29;94794.38;;;26.52;44.15
77041;BME280;65974;42.664;23.264;2023-08-21T08:15:55;94796.75;;;26.59;43.55
77041;BME280;65974;42.664;23.264;2023-08-21T08:18:20;94796.56;;;26.63;43.36
77041;BME280;65974;42.664;23.264;2023-08-21T08:20:46;94798.06;;;26.64;44.63
77041;BME280;65974;42.664;23.264;2023-08-21T08:23:11;94789.78;;;26.73;43.83
77041;BME280;65974;42.664;23.264;2023-08-21T08:25:37;94796.75;;;26.88;42.94
77041;BME280;65974;42.664;23.264;2023-08-21T08:28:02;94799.75;;;26.90;44.19
77041;BME280;65974;42.664;23.264;2023-08-21T08:30:28;94790.22;;;27.01;42.26
77041;BME280;65974;42.664;23.264;2023-08-21T08:32:53;94785.66;;;27.12;42.19
77041;BME280;65974;42.664;23.264;2023-08-21T08:35:19;94795.94;;;27.17;42.13
77041;BME280;65974;42.664;23.264;2023-08-21T08:37:44;94785.06;;;27.23;42.15
77041;BME280;65974;42.664;23.264;2023-08-21T08:40:11;94789.19;;;27.33;41.89
77041;BME280;65974;42.664;23.264;2023-08-21T08:42:37;94791.28;;;27.38;41.79
77041;BME280;65974;42.664;23.264;2023-08-21T08:45:03;94787.50;;;27.35;40.96
77041;BME280;65974;42.664;23.264;2023-08-21T08:47:33;94785.81;;;27.38;40.69
77041;BME280;65974;42.664;23.264;2023-08-21T08:50:04;94779.56;;;27.37;40.44
77041;BME280;65974;42.664;23.264;2023-08-21T08:52:35;94777.19;;;27.45;41.90
77041;BME280;65974;42.664;23.264;2023-08-21T08:55:01;94779.09;;;27.39;41.34
77041;BME280;65974;42.664;23.264;2023-08-21T08:57:27;94777.47;;;27.47;40.97
77041;BME280;65974;42.664;23.264;2023-08-21T08:59:53;94776.78;;;27.52;40.72
77041;BME280;65974;42.664;23.264;2023-08-21T09:02:18;94774.44;;;27.65;42.10
77041;BME280;65974;42.664;23.264;2023-08-21T09:04:45;94781.50;;;27.72;39.63
77041;BME280;65974;42.664;23.264;2023-08-21T09:07:12;94774.31;;;27.74;40.56
77041;BME280;65974;42.664;23.264;2023-08-21T09:09:44;94778.13;;;27.82;41.08
77041;BME280;65974;42.664;23.264;2023-08-21T09:12:11;94776.66;;;27.81;39.64
77041;BME280;65974;42.664;23.264;2023-08-21T09:14:38;94765.00;;;27.86;39.57
77041;BME280;65974;42.664;23.264;2023-08-21T09:17:04;94768.81;;;27.94;40.00
77041;BME280;65974;42.664;23.264;2023-08-21T09:19:29;94770.47;;;28.06;38.86
77041;BME280;65974;42.664;23.264;2023-08-21T09:21:57;94763.34;;;28.14;38.52
77041;BME280;65974;42.664;23.264;2023-08-21T09:24:23;94758.81;;;28.11;38.55
77041;BME280;65974;42.664;23.264;2023-08-21T09:26:49;94765.81;;;28.12;38.11
77041;BME280;65974;42.664;23.264;2023-08-21T09:29:15;94765.03;;;28.12;38.83
77041;BME280;65974;42.664;23.264;2023-08-21T09:31:42;94766.06;;;28.14;37.85
77041;BME280;65974;42.664;23.264;2023-08-21T09:34:11;94754.09;;;28.12;37.70
77041;BME280;65974;42.664;23.264;2023-08-21T09:36:38;94752.63;;;28.16;38.93
77041;BME280;65974;42.664;23.264;2023-08-21T09:39:04;94762.19;;;28.26;38.11
77041;BME280;65974;42.664;23.264;2023-08-21T09:41:31;94748.22;;;28.50;37.38
77041;BME280;65974;42.664;23.264;2023-08-21T09:44:01;94750.22;;;28.81;36.74
77041;BME280;65974;42.664;23.264;2023-08-21T09:46:27;94744.94;;;28.77;38.47
77041;BME280;65974;42.664;23.264;2023-08-21T09:48:54;94745.13;;;28.99;36.05
77041;BME280;65974;42.664;23.264;2023-08-21T09:51:20;94744.16;;;29.08;36.23
77041;BME280;65974;42.664;23.264;2023-08-21T09:53:48;94737.16;;;29.01;35.70
77041;BME280;65974;42.664;23.264;2023-08-21T09:56:14;94736.72;;;29.14;35.78
77041;BME280;65974;42.664;23.264;2023-08-21T09:58:40;94729.34;;;29.26;35.42
77041;BME280;65974;42.664;23.264;2023-08-21T10:01:07;94730.06;;;29.26;35.91
77041;BME280;65974;42.664;23.264;2023-08-21T10:03:38;94729.28;;;29.20;36.00
77041;BME280;65974;42.664;23.264;2023-08-21T10:06:05;94723.91;;;29.37;34.97
77041;BME280;65974;42.664;23.264;2023-08-21T10:08:32;94730.19;;;29.48;35.34
77041;BME280;65974;42.664;23.264;2023-08-21T10:11:05;94723.22;;;29.47;35.76
77041;BME280;65974;42.664;23.264;2023-08-21T10:13:33;94710.47;;;29.50;35.43
77041;BME280;65974;42.664;23.264;2023-08-21T10:15:59;94714.47;;;29.54;35.11
77041;BME280;65974;42.664;23.264;2023-08-21T10:18:33;94714.97;;;29.47;34.34
77041;BME280;65974;42.664;23.264;2023-08-21T10:21:26;94704.47;;;29.46;33.76
77041;BME280;65974;42.664;23.264;2023-08-21T10:24:00;94713.19;;;29.44;33.81
77041;BME280;65974;42.664;23.264;2023-08-21T10:26:26;94715.69;;;29.37;33.74
77041;BME280;65974;42.664;23.264;2023-08-21T10:28:54;94709.19;;;29.34;35.84
77041;BME280;65974;42.664;23.264;2023-08-21T10:31:39;94707.41;;;29.31;35.50
77041;BME280;65974;42.664;23.264;2023-08-21T10:34:09;94701.16;;;29.31;33.64
77041;BME280;65974;42.664;23.264;2023-08-21T10:39:19;94690.75;;;29.46;34.53
77041;BME280;65974;42.664;23.264;2023-08-21T10:42:00;94688.50;;;29.50;34.02
77041;BME280;65974;42.664;23.264;2023-08-21T10:47:30;94689.06;;;29.65;34.88
77041;BME280;65974;42.664;23.264;2023-08-21T10:49:58;94676.66;;;29.75;33.53
77041;BME280;65974;42.664;23.264;2023-08-21T10:52:29;94684.41;;;29.93;33.90
77041;BME280;65974;42.664;23.264;2023-08-21T10:54:56;94679.44;;;29.97;32.60
77041;BME280;65974;42.664;23.264;2023-08-21T10:57:26;94675.69;;;29.89;32.93
77041;BME280;65974;42.664;23.264;2023-08-21T11:02:19;94670.44;;;29.91;33.47
77041;BME280;65974;42.664;23.264;2023-08-21T11:04:44;94677.44;;;29.92;34.17
77041;BME280;65974;42.664;23.264;2023-08-21T11:07:11;94671.44;;;29.99;32.93
77041;BME280;65974;42.664;23.264;2023-08-21T11:09:39;94668.19;;;30.12;32.20
77041;BME280;65974;42.664;23.264;2023-08-21T11:12:09;94657.72;;;30.16;32.67
77041;BME280;65974;42.664;23.264;2023-08-21T11:14:35;94654.22;;;30.26;31.49
77041;BME280;65974;42.664;23.264;2023-08-21T11:17:01;94664.97;;;30.24;32.53
77041;BME280;65974;42.664;23.264;2023-08-21T11:19:26;94649.75;;;30.40;31.07
77041;BME280;65974;42.664;23.264;2023-08-21T11:21:52;94654.72;;;30.63;29.49
77041;BME280;65974;42.664;23.264;2023-08-21T11:24:17;94655.47;;;30.64;30.45
77041;BME280;65974;42.664;23.264;2023-08-21T11:26:43;94658.47;;;30.60;30.96
77041;BME280;65974;42.664;23.264;2023-08-21T11:29:09;94652.50;;;30.62;29.63
77041;BME280;65974;42.664;23.264;2023-08-21T11:31:34;94640.72;;;30.67;30.49
77041;BME280;65974;42.664;23.264;2023-08-21T11:34:00;94655.97;;;30.79;29.39
77041;BME280;65974;42.664;23.264;2023-08-21T11:36:25;94639.19;;;30.94;29.66
77041;BME280;65974;42.664;23.264;2023-08-21T11:39:02;94644.69;;;30.94;30.54
77041;BME280;65974;42.664;23.264;2023-08-21T11:41:32;94641.41;;;31.06;30.11
77041;BME280;65974;42.664;23.264;2023-08-21T11:44:17;94640.56;;;31.22;29.52
77041;BME280;65974;42.664;23.264;2023-08-21T11:46:43;94638.53;;;31.28;29.27
77041;BME280;65974;42.664;23.264;2023-08-21T11:49:08;94634.03;;;31.42;29.00
77041;BME280;65974;42.664;23.264;2023-08-21T11:51:40;94630.50;;;31.47;29.59
77041;BME280;65974;42.664;23.264;2023-08-21T11:54:06;94634.97;;;31.56;27.41
77041;BME280;65974;42.664;23.264;2023-08-21T11:56:31;94643.94;;;31.56;28.58
77041;BME280;65974;42.664;23.264;2023-08-21T11:58:57;94641.00;;;31.49;28.40
77041;BME280;65974;42.664;23.264;2023-08-21T12:01:24;94640.78;;;31.35;28.81
77041;BME280;65974;42.664;23.264;2023-08-21T12:03:50;94629.53;;;31.33;28.05
77041;BME280;65974;42.664;23.264;2023-08-21T12:06:22;94630.56;;;31.30;29.06
77041;BME280;65974;42.664;23.264;2023-08-21T12:08:48;94627.53;;;31.28;29.05
77041;BME280;65974;42.664;23.264;2023-08-21T12:11:13;94634.53;;;31.41;27.45
77041;BME280;65974;42.664;23.264;2023-08-21T12:13:39;94626.94;;;31.52;27.49
77041;BME280;65974;42.664;23.264;2023-08-21T12:16:04;94628.22;;;31.46;27.78
77041;BME280;65974;42.664;23.264;2023-08-21T12:18:30;94625.53;;;31.40;27.01
77041;BME280;65974;42.664;23.264;2023-08-21T12:20:56;94619.25;;;31.45;27.44
77041;BME280;65974;42.664;23.264;2023-08-21T12:23:21;94617.22;;;31.46;27.11
77041;BME280;65974;42.664;23.264;2023-08-21T12:25:47;94613.22;;;31.47;27.07
77041;BME280;65974;42.664;23.264;2023-08-21T12:28:12;94613.09;;;31.69;26.70
77041;BME280;65974;42.664;23.264;2023-08-21T12:30:38;94611.59;;;31.68;27.14
77041;BME280;65974;42.664;23.264;2023-08-21T12:33:04;94608.06;;;31.73;26.71
77041;BME280;65974;42.664;23.264;2023-08-21T12:35:29;94610.53;;;31.76;27.62
77041;BME280;65974;42.664;23.264;2023-08-21T12:37:57;94611.00;;;31.80;27.28
77041;BME280;65974;42.664;23.264;2023-08-21T12:40:23;94605.47;;;31.86;26.54
77041;BME280;65974;42.664;23.264;2023-08-21T12:42:49;94607.19;;;31.89;27.95
77041;BME280;65974;42.664;23.264;2023-08-21T12:45:15;94612.66;;;32.00;27.76
77041;BME280;65974;42.664;23.264;2023-08-21T12:47:41;94602.38;;;32.00;26.71
77041;BME280;65974;42.664;23.264;2023-08-21T12:50:08;94594.13;;;32.00;27.54
77041;BME280;65974;42.664;23.264;2023-08-21T12:52:33;94584.91;;;31.87;27.28
77041;BME280;65974;42.664;23.264;2023-08-21T12:54:59;94587.44;;;31.85;27.64
77041;BME280;65974;42.664;23.264;2023-08-21T12:57:26;94597.28;;;31.75;28.42
77041;BME280;65974;42.664;23.264;2023-08-21T12:59:52;94594.00;;;31.76;28.18
77041;BME280;65974;42.664;23.264;2023-08-21T13:02:18;94589.25;;;31.77;27.99